sensor_id;sensor_type;location;lat;lon;timestamp;P1;durP1;ratioP1;P2;durP2;ratioP2
45863;SDS011;31579;52.354;16.974;2022-09-01T00:03:00;5.50;;;2.70;;
45863;SDS011;31579;52.354;16.974;2022-09-01T00:08:00;5.50;;;2.70;;
45863;SDS011;31579;52.354;16.974;2022-09-01T00:13:00;4.90;;;2.60;;
45863;SDS011;31579;52.354;16.974;2022-09-01T00:22:01;5.20;;;2.40;;
45863;SDS011;31579;52.354;16.974;2022-09-01T00:27:02;5.20;;;2.40;;
45863;SDS011;31579;52.354;16.974;2022-09-01T00:32:01;6.40;;;2.70;;
45863;SDS011;31579;52.354;16.974;2022-09-01T00:37:01;6.40;;;2.70;;
45863;SDS011;31579;52.354;16.974;2022-09-01T00:42:01;5.30;;;2.50;;
45863;SDS011;31579;52.354;16.974;2022-09-01T00:47:11;5.30;;;2.50;;
45863;SDS011;31579;52.354;16.974;2022-09-01T00:52:12;5.30;;;2.30;;
45863;SDS011;31579;52.354;16.974;2022-09-01T00:57:01;5.30;;;2.30;;
45863;SDS011;31579;52.354;16.974;2022-09-01T01:01:59;5.50;;;2.20;;
45863;SDS011;31579;52.354;16.974;2022-09-01T01:06:59;5.50;;;2.20;;
45863;SDS011;31579;52.354;16.974;2022-09-01T01:11:59;5.90;;;2.20;;
45863;SDS011;31579;52.354;16.974;2022-09-01T01:16:59;5.90;;;2.20;;
45863;SDS011;31579;52.354;16.974;2022-09-01T01:21:59;5.20;;;2.30;;
45863;SDS011;31579;52.354;16.974;2022-09-01T01:27:00;5.20;;;2.30;;
45863;SDS011;31579;52.354;16.974;2022-09-01T01:29:05;4.60;;;2.20;;
45863;SDS011;31579;52.354;16.974;2022-09-01T01:34:04;4.60;;;2.20;;
45863;SDS011;31579;52.354;16.974;2022-09-01T01:39:09;5.90;;;2.80;;
45863;SDS011;31579;52.354;16.974;2022-09-01T01:44:04;5.90;;;2.80;;
45863;SDS011;31579;52.354;16.974;2022-09-01T01:49:04;16.20;;;3.10;;
45863;SDS011;31579;52.354;16.974;2022-09-01T01:54:04;16.20;;;3.10;;
45863;SDS011;31579;52.354;16.974;2022-09-01T01:59:08;7.10;;;2.90;;
45863;SDS011;31579;52.354;16.974;2022-09-01T02:04:04;7.10;;;2.90;;
45863;SDS011;31579;52.354;16.974;2022-09-01T02:07:47;7.10;;;2.90;;
45863;SDS011;31579;52.354;16.974;2022-09-01T02:16:06;7.10;;;2.90;;
45863;SDS011;31579;52.354;16.974;2022-09-01T02:21:06;8.00;;;2.60;;
45863;SDS011;31579;52.354;16.974;2022-09-01T02:26:06;8.00;;;2.60;;
45863;SDS011;31579;52.354;16.974;2022-09-01T02:31:05;5.80;;;2.80;;
45863;SDS011;31579;52.354;16.974;2022-09-01T02:36:09;5.80;;;2.80;;
45863;SDS011;31579;52.354;16.974;2022-09-01T02:41:06;5.50;;;2.90;;
45863;SDS011;31579;52.354;16.974;2022-09-01T02:46:05;5.50;;;2.90;;
45863;SDS011;31579;52.354;16.974;2022-09-01T02:51:18;8.40;;;3.90;;
45863;SDS011;31579;52.354;16.974;2022-09-01T02:56:15;8.40;;;3.90;;
45863;SDS011;31579;52.354;16.974;2022-09-01T03:01:19;6.90;;;3.40;;
45863;SDS011;31579;52.354;16.974;2022-09-01T03:06:16;6.90;;;3.40;;
45863;SDS011;31579;52.354;16.974;2022-09-01T03:11:16;6.70;;;3.70;;
45863;SDS011;31579;52.354;16.974;2022-09-01T03:16:16;6.70;;;3.70;;
45863;SDS011;31579;52.354;16.974;2022-09-01T03:21:17;5.20;;;2.60;;
45863;SDS011;31579;52.354;16.974;2022-09-01T03:26:16;5.20;;;2.60;;
45863;SDS011;31579;52.354;16.974;2022-09-01T03:31:16;6.50;;;3.50;;
45863;SDS011;31579;52.354;16.974;2022-09-01T03:36:15;6.50;;;3.50;;
45863;SDS011;31579;52.354;16.974;2022-09-01T03:41:17;10.20;;;3.80;;
45863;SDS011;31579;52.354;16.974;2022-09-01T03:46:16;10.20;;;3.80;;
45863;SDS011;31579;52.354;16.974;2022-09-01T03:51:16;5.80;;;3.10;;
45863;SDS011;31579;52.354;16.974;2022-09-01T03:56:15;5.80;;;3.10;;
45863;SDS011;31579;52.354;16.974;2022-09-01T04:01:16;10.90;;;4.30;;
45863;SDS011;31579;52.354;16.974;2022-09-01T04:06:16;10.90;;;4.30;;
45863;SDS011;31579;52.354;16.974;2022-09-01T04:21:24;7.90;;;4.60;;
45863;SDS011;31579;52.354;16.974;2022-09-01T04:26:24;7.90;;;4.60;;
45863;SDS011;31579;52.354;16.974;2022-09-01T04:31:24;7.00;;;4.60;;
45863;SDS011;31579;52.354;16.974;2022-09-01T04:36:28;7.00;;;4.60;;
45863;SDS011;31579;52.354;16.974;2022-09-01T04:45:21;7.00;;;4.60;;
45863;SDS011;31579;52.354;16.974;2022-09-01T04:53:04;8.00;;;5.00;;
45863;SDS011;31579;52.354;16.974;2022-09-01T04:58:04;14.00;;;5.60;;
45863;SDS011;31579;52.354;16.974;2022-09-01T05:03:04;14.00;;;5.60;;
45863;SDS011;31579;52.354;16.974;2022-09-01T05:08:05;7.90;;;4.40;;
45863;SDS011;31579;52.354;16.974;2022-09-01T05:13:04;7.90;;;4.40;;
45863;SDS011;31579;52.354;16.974;2022-09-01T05:17:03;7.90;;;4.40;;
45863;SDS011;31579;52.354;16.974;2022-09-01T05:22:01;7.90;;;4.40;;
45863;SDS011;31579;52.354;16.974;2022-09-01T05:27:03;7.90;;;4.40;;
45863;SDS011;31579;52.354;16.974;2022-09-01T05:32:05;4.80;;;2.70;;
45863;SDS011;31579;52.354;16.974;2022-09-01T05:37:01;4.80;;;2.70;;
45863;SDS011;31579;52.354;16.974;2022-09-01T05:42:12;8.60;;;2.60;;
45863;SDS011;31579;52.354;16.974;2022-09-01T05:47:11;8.60;;;2.60;;
45863;SDS011;31579;52.354;16.974;2022-09-01T05:52:10;6.80;;;2.70;;
45863;SDS011;31579;52.354;16.974;2022-09-01T05:55:10;6.80;;;2.70;;
45863;SDS011;31579;52.354;16.974;2022-09-01T06:00:09;5.90;;;2.50;;
45863;SDS011;31579;52.354;16.974;2022-09-01T06:05:09;5.90;;;2.50;;
45863;SDS011;31579;52.354;16.974;2022-09-01T06:10:55;4.90;;;2.50;;
45863;SDS011;31579;52.354;16.974;2022-09-01T06:15:55;4.90;;;2.50;;
45863;SDS011;31579;52.354;16.974;2022-09-01T06:20:55;7.80;;;2.10;;
45863;SDS011;31579;52.354;16.974;2022-09-01T06:25:55;7.80;;;2.10;;
45863;SDS011;31579;52.354;16.974;2022-09-01T06:30:55;5.80;;;2.20;;
45863;SDS011;31579;52.354;16.974;2022-09-01T06:35:57;5.80;;;2.20;;
45863;SDS011;31579;52.354;16.974;2022-09-01T06:46:05;5.40;;;1.40;;
45863;SDS011;31579;52.354;16.974;2022-09-01T06:51:03;4.80;;;1.40;;
45863;SDS011;31579;52.354;16.974;2022-09-01T06:56:03;4.80;;;1.40;;
45863;SDS011;31579;52.354;16.974;2022-09-01T07:01:09;4.80;;;1.70;;
45863;SDS011;31579;52.354;16.974;2022-09-01T07:06:04;4.80;;;1.70;;
45863;SDS011;31579;52.354;16.974;2022-09-01T07:11:04;3.90;;;1.40;;
45863;SDS011;31579;52.354;16.974;2022-09-01T07:16:06;3.90;;;1.40;;
45863;SDS011;31579;52.354;16.974;2022-09-01T07:21:04;5.80;;;1.40;;
45863;SDS011;31579;52.354;16.974;2022-09-01T07:26:05;5.80;;;1.40;;
45863;SDS011;31579;52.354;16.974;2022-09-01T07:31:04;4.40;;;1.30;;
45863;SDS011;31579;52.354;16.974;2022-09-01T07:32:04;4.40;;;1.30;;
45863;SDS011;31579;52.354;16.974;2022-09-01T07:37:02;4.40;;;1.30;;
45863;SDS011;31579;52.354;16.974;2022-09-01T07:42:02;3.70;;;1.40;;
45863;SDS011;31579;52.354;16.974;2022-09-01T07:47:02;3.70;;;1.40;;
45863;SDS011;31579;52.354;16.974;2022-09-01T07:52:03;2.50;;;0.80;;
45863;SDS011;31579;52.354;16.974;2022-09-01T07:57:02;2.50;;;0.80;;
45863;SDS011;31579;52.354;16.974;2022-09-01T08:02:03;4.30;;;1.00;;
45863;SDS011;31579;52.354;16.974;2022-09-01T08:07:02;4.30;;;1.00;;
45863;SDS011;31579;52.354;16.974;2022-09-01T08:12:03;3.10;;;1.10;;
45863;SDS011;31579;52.354;16.974;2022-09-01T08:17:02;3.10;;;1.10;;
45863;SDS011;31579;52.354;16.974;2022-09-01T08:22:02;3.40;;;0.90;;
45863;SDS011;31579;52.354;16.974;2022-09-01T08:27:02;3.40;;;0.90;;
45863;SDS011;31579;52.354;16.974;2022-09-01T08:32:02;3.50;;;1.10;;
45863;SDS011;31579;52.354;16.974;2022-09-01T08:37:03;3.50;;;1.10;;
45863;SDS011;31579;52.354;16.974;2022-09-01T08:47:04;2.10;;;0.80;;
45863;SDS011;31579;52.354;16.974;2022-09-01T08:57:04;2.40;;;0.60;;
45863;SDS011;31579;52.354;16.974;2022-09-01T09:17:02;2.50;;;0.80;;
45863;SDS011;31579;52.354;16.974;2022-09-01T09:22:08;2.60;;;0.70;;
45863;SDS011;31579;52.354;16.974;2022-09-01T09:27:02;2.60;;;0.70;;
45863;SDS011;31579;52.354;16.974;2022-09-01T09:43:13;3.20;;;0.80;;
45863;SDS011;31579;52.354;16.974;2022-09-01T09:58:12;2.20;;;0.80;;
45863;SDS011;31579;52.354;16.974;2022-09-01T10:03:12;2.20;;;0.80;;
45863;SDS011;31579;52.354;16.974;2022-09-01T10:13:17;2.50;;;0.70;;
45863;SDS011;31579;52.354;16.974;2022-09-01T10:18:14;2.20;;;0.80;;
45863;SDS011;31579;52.354;16.974;2022-09-01T10:23:13;2.20;;;0.80;;
45863;SDS011;31579;52.354;16.974;2022-09-01T10:28:14;3.90;;;0.90;;
45863;SDS011;31579;52.354;16.974;2022-09-01T10:38:24;2.20;;;0.70;;
45863;SDS011;31579;52.354;16.974;2022-09-01T10:48:25;2.40;;;0.70;;
45863;SDS011;31579;52.354;16.974;2022-09-01T11:10:59;3.20;;;0.60;;
45863;SDS011;31579;52.354;16.974;2022-09-01T11:15:52;3.20;;;0.60;;
45863;SDS011;31579;52.354;16.974;2022-09-01T11:20:52;2.40;;;0.60;;
45863;SDS011;31579;52.354;16.974;2022-09-01T11:38:03;3.80;;;0.70;;
45863;SDS011;31579;52.354;16.974;2022-09-01T11:43:03;3.80;;;0.70;;
45863;SDS011;31579;52.354;16.974;2022-09-01T11:45:26;3.80;;;0.70;;
45863;SDS011;31579;52.354;16.974;2022-09-01T11:50:25;3.20;;;1.00;;
45863;SDS011;31579;52.354;16.974;2022-09-01T12:00:29;3.00;;;0.80;;
45863;SDS011;31579;52.354;16.974;2022-09-01T12:15:28;2.60;;;0.90;;
45863;SDS011;31579;52.354;16.974;2022-09-01T12:25:26;3.00;;;1.00;;
45863;SDS011;31579;52.354;16.974;2022-09-01T12:30:26;4.20;;;1.30;;
45863;SDS011;31579;52.354;16.974;2022-09-01T12:35:25;4.20;;;1.30;;
45863;SDS011;31579;52.354;16.974;2022-09-01T12:49:25;3.20;;;1.10;;
45863;SDS011;31579;52.354;16.974;2022-09-01T12:54:24;3.20;;;1.10;;
45863;SDS011;31579;52.354;16.974;2022-09-01T12:59:24;2.80;;;0.90;;
45863;SDS011;31579;52.354;16.974;2022-09-01T13:04:25;2.80;;;0.90;;
45863;SDS011;31579;52.354;16.974;2022-09-01T13:10:53;2.90;;;1.10;;
45863;SDS011;31579;52.354;16.974;2022-09-01T13:15:52;2.90;;;1.10;;
45863;SDS011;31579;52.354;16.974;2022-09-01T13:20:51;1.90;;;0.90;;
45863;SDS011;31579;52.354;16.974;2022-09-01T13:25:51;1.90;;;0.90;;
45863;SDS011;31579;52.354;16.974;2022-09-01T13:30:53;2.50;;;1.10;;
45863;SDS011;31579;52.354;16.974;2022-09-01T13:35:52;2.50;;;1.10;;
45863;SDS011;31579;52.354;16.974;2022-09-01T13:40:51;2.20;;;1.10;;
45863;SDS011;31579;52.354;16.974;2022-09-01T13:45:51;2.20;;;1.10;;
45863;SDS011;31579;52.354;16.974;2022-09-01T13:50:51;2.80;;;1.10;;
45863;SDS011;31579;52.354;16.974;2022-09-01T13:55:51;2.80;;;1.10;;
45863;SDS011;31579;52.354;16.974;2022-09-01T14:00:51;2.80;;;1.00;;
45863;SDS011;31579;52.354;16.974;2022-09-01T14:05:51;2.80;;;1.00;;
45863;SDS011;31579;52.354;16.974;2022-09-01T14:10:51;2.90;;;1.00;;
45863;SDS011;31579;52.354;16.974;2022-09-01T14:15:52;2.90;;;1.00;;
45863;SDS011;31579;52.354;16.974;2022-09-01T14:20:51;3.40;;;1.00;;
45863;SDS011;31579;52.354;16.974;2022-09-01T14:25:51;3.40;;;1.00;;
45863;SDS011;31579;52.354;16.974;2022-09-01T14:30:51;2.30;;;0.80;;
45863;SDS011;31579;52.354;16.974;2022-09-01T14:35:51;2.30;;;0.80;;
45863;SDS011;31579;52.354;16.974;2022-09-01T14:40:54;2.40;;;0.80;;
45863;SDS011;31579;52.354;16.974;2022-09-01T14:46:52;2.40;;;0.80;;
45863;SDS011;31579;52.354;16.974;2022-09-01T14:51:52;2.90;;;0.90;;
45863;SDS011;31579;52.354;16.974;2022-09-01T14:56:52;2.90;;;0.90;;
45863;SDS011;31579;52.354;16.974;2022-09-01T15:01:52;2.50;;;0.80;;
45863;SDS011;31579;52.354;16.974;2022-09-01T15:03:27;2.50;;;0.80;;
45863;SDS011;31579;52.354;16.974;2022-09-01T15:08:26;3.30;;;0.70;;
45863;SDS011;31579;52.354;16.974;2022-09-01T15:13:26;3.30;;;0.70;;
45863;SDS011;31579;52.354;16.974;2022-09-01T15:18:26;1.80;;;0.70;;
45863;SDS011;31579;52.354;16.974;2022-09-01T15:23:26;1.80;;;0.70;;
45863;SDS011;31579;52.354;16.974;2022-09-01T15:28:26;2.50;;;0.80;;
45863;SDS011;31579;52.354;16.974;2022-09-01T15:33:27;2.50;;;0.80;;
45863;SDS011;31579;52.354;16.974;2022-09-01T15:38:26;2.40;;;1.00;;
45863;SDS011;31579;52.354;16.974;2022-09-01T15:43:26;2.40;;;1.00;;
45863;SDS011;31579;52.354;16.974;2022-09-01T15:48:26;1.90;;;0.70;;
45863;SDS011;31579;52.354;16.974;2022-09-01T15:53:26;1.90;;;0.70;;
45863;SDS011;31579;52.354;16.974;2022-09-01T15:58:26;2.00;;;0.70;;
45863;SDS011;31579;52.354;16.974;2022-09-01T16:03:26;2.00;;;0.70;;
45863;SDS011;31579;52.354;16.974;2022-09-01T16:08:26;2.10;;;0.70;;
45863;SDS011;31579;52.354;16.974;2022-09-01T16:13:26;2.10;;;0.70;;
45863;SDS011;31579;52.354;16.974;2022-09-01T16:23:31;2.70;;;0.70;;
45863;SDS011;31579;52.354;16.974;2022-09-01T16:28:37;3.20;;;0.80;;
45863;SDS011;31579;52.354;16.974;2022-09-01T16:33:37;3.20;;;0.80;;
45863;SDS011;31579;52.354;16.974;2022-09-01T16:43:44;4.50;;;0.60;;
45863;SDS011;31579;52.354;16.974;2022-09-01T17:08:48;2.60;;;0.60;;
45863;SDS011;31579;52.354;16.974;2022-09-01T17:23:40;2.60;;;0.60;;
45863;SDS011;31579;52.354;16.974;2022-09-01T17:28:38;3.70;;;0.70;;
45863;SDS011;31579;52.354;16.974;2022-09-01T17:43:48;3.60;;;0.70;;
45863;SDS011;31579;52.354;16.974;2022-09-01T17:48:39;3.50;;;0.60;;
45863;SDS011;31579;52.354;16.974;2022-09-01T18:12:03;4.50;;;1.00;;
45863;SDS011;31579;52.354;16.974;2022-09-01T18:16:09;4.50;;;1.00;;
45863;SDS011;31579;52.354;16.974;2022-09-01T18:21:06;2.40;;;0.70;;
45863;SDS011;31579;52.354;16.974;2022-09-01T18:26:07;2.40;;;0.70;;
45863;SDS011;31579;52.354;16.974;2022-09-01T18:51:11;3.10;;;1.00;;
45863;SDS011;31579;52.354;16.974;2022-09-01T19:01:06;2.60;;;1.10;;
45863;SDS011;31579;52.354;16.974;2022-09-01T19:11:07;3.90;;;1.40;;
45863;SDS011;31579;52.354;16.974;2022-09-01T19:21:09;4.70;;;1.40;;
45863;SDS011;31579;52.354;16.974;2022-09-01T19:26:05;4.70;;;1.40;;
45863;SDS011;31579;52.354;16.974;2022-09-01T19:35:57;3.20;;;1.30;;
45863;SDS011;31579;52.354;16.974;2022-09-01T19:40:59;2.90;;;1.30;;
45863;SDS011;31579;52.354;16.974;2022-09-01T19:50:59;5.20;;;1.50;;
45863;SDS011;31579;52.354;16.974;2022-09-01T20:00:12;3.80;;;1.60;;
45863;SDS011;31579;52.354;16.974;2022-09-01T20:05:10;3.80;;;1.60;;
45863;SDS011;31579;52.354;16.974;2022-09-01T20:15:09;4.30;;;1.70;;
45863;SDS011;31579;52.354;16.974;2022-09-01T20:25:09;5.80;;;2.00;;
45863;SDS011;31579;52.354;16.974;2022-09-01T20:50:09;4.60;;;2.10;;
45863;SDS011;31579;52.354;16.974;2022-09-01T20:55:11;4.60;;;2.10;;
45863;SDS011;31579;52.354;16.974;2022-09-01T20:58:53;4.50;;;2.00;;
45863;SDS011;31579;52.354;16.974;2022-09-01T21:23:50;7.20;;;2.20;;
45863;SDS011;31579;52.354;16.974;2022-09-01T21:28:53;6.00;;;2.20;;
45863;SDS011;31579;52.354;16.974;2022-09-01T21:33:50;6.00;;;2.20;;
45863;SDS011;31579;52.354;16.974;2022-09-01T21:38:50;6.30;;;2.40;;
45863;SDS011;31579;52.354;16.974;2022-09-01T21:43:50;6.30;;;2.40;;
45863;SDS011;31579;52.354;16.974;2022-09-01T21:48:50;4.90;;;2.40;;
45863;SDS011;31579;52.354;16.974;2022-09-01T21:53:50;4.90;;;2.40;;
45863;SDS011;31579;52.354;16.974;2022-09-01T21:58:50;9.70;;;2.60;;
45863;SDS011;31579;52.354;16.974;2022-09-01T22:03:50;9.70;;;2.60;;
45863;SDS011;31579;52.354;16.974;2022-09-01T22:13:26;6.70;;;2.50;;
45863;SDS011;31579;52.354;16.974;2022-09-01T22:18:26;6.00;;;2.70;;
45863;SDS011;31579;52.354;16.974;2022-09-01T22:23:26;6.00;;;2.70;;
45863;SDS011;31579;52.354;16.974;2022-09-01T22:28:26;7.60;;;2.40;;
45863;SDS011;31579;52.354;16.974;2022-09-01T22:33:26;7.60;;;2.40;;
45863;SDS011;31579;52.354;16.974;2022-09-01T22:38:30;5.80;;;2.80;;
45863;SDS011;31579;52.354;16.974;2022-09-01T22:43:27;5.80;;;2.80;;
45863;SDS011;31579;52.354;16.974;2022-09-01T22:48:04;5.80;;;2.80;;
45863;SDS011;31579;52.354;16.974;2022-09-01T22:53:02;7.90;;;2.50;;
45863;SDS011;31579;52.354;16.974;2022-09-01T22:58:02;7.10;;;2.70;;
45863;SDS011;31579;52.354;16.974;2022-09-01T23:03:02;7.10;;;2.70;;
45863;SDS011;31579;52.354;16.974;2022-09-01T23:08:02;4.70;;;2.10;;
45863;SDS011;31579;52.354;16.974;2022-09-01T23:18:11;5.10;;;2.10;;
45863;SDS011;31579;52.354;16.974;2022-09-01T23:23:11;5.10;;;2.10;;
45863;SDS011;31579;52.354;16.974;2022-09-01T23:28:12;7.20;;;2.30;;
45863;SDS011;31579;52.354;16.974;2022-09-01T23:34:19;7.20;;;2.30;;
45863;SDS011;31579;52.354;16.974;2022-09-01T23:39:19;5.00;;;2.30;;
45863;SDS011;31579;52.354;16.974;2022-09-01T23:44:18;5.00;;;2.30;;
45863;SDS011;31579;52.354;16.974;2022-09-01T23:49:18;4.50;;;2.20;;
45863;SDS011;31579;52.354;16.974;2022-09-01T23:54:19;4.50;;;2.20;;
45863;SDS011;31579;52.354;16.974;2022-09-01T23:58:32;5.80;;;2.50;;
